sensor_id;sensor_type;location;lat;lon;timestamp;temperature;humidity
71237;DHT22;58984;51.960;5.582;2024-03-23T00:54:15;10.40;99.90
71237;DHT22;58984;51.960;5.582;2024-03-23T00:56:41;10.40;99.90
71237;DHT22;58984;51.960;5.582;2024-03-23T00:59:06;10.40;99.90
71237;DHT22;58984;51.960;5.582;2024-03-23T01:01:32;10.40;99.90
71237;DHT22;58984;51.960;5.582;2024-03-23T01:03:57;10.40;99.90
71237;DHT22;58984;51.960;5.582;2024-03-23T01:06:23;10.40;99.90
71237;DHT22;58984;51.960;5.582;2024-03-23T01:08:49;10.40;99.90
71237;DHT22;58984;51.960;5.582;2024-03-23T01:11:14;10.40;99.90
71237;DHT22;58984;51.960;5.582;2024-03-23T01:13:40;10.40;99.90
71237;DHT22;58984;51.960;5.582;2024-03-23T01:16:06;10.40;99.90
71237;DHT22;58984;51.960;5.582;2024-03-23T01:18:32;10.40;99.90
71237;DHT22;58984;51.960;5.582;2024-03-23T01:20:58;10.30;99.90
71237;DHT22;58984;51.960;5.582;2024-03-23T01:23:23;10.30;99.90
71237;DHT22;58984;51.960;5.582;2024-03-23T01:25:53;10.30;99.90
71237;DHT22;58984;51.960;5.582;2024-03-23T01:28:19;10.30;99.90
71237;DHT22;58984;51.960;5.582;2024-03-23T01:30:45;10.30;99.90
71237;DHT22;58984;51.960;5.582;2024-03-23T01:33:11;10.30;99.90
71237;DHT22;58984;51.960;5.582;2024-03-23T01:35:37;10.30;99.90
71237;DHT22;58984;51.960;5.582;2024-03-23T01:38:02;10.30;99.90
71237;DHT22;58984;51.960;5.582;2024-03-23T01:40:28;10.30;99.90
71237;DHT22;58984;51.960;5.582;2024-03-23T01:43:07;10.30;99.90
71237;DHT22;58984;51.960;5.582;2024-03-23T01:45:34;10.30;99.90
71237;DHT22;58984;51.960;5.582;2024-03-23T01:48:00;10.30;99.90
71237;DHT22;58984;51.960;5.582;2024-03-23T01:50:26;10.30;99.90
71237;DHT22;58984;51.960;5.582;2024-03-23T01:52:53;10.20;99.90
71237;DHT22;58984;51.960;5.582;2024-03-23T01:55:19;10.20;99.90
71237;DHT22;58984;51.960;5.582;2024-03-23T01:57:45;10.30;99.90
71237;DHT22;58984;51.960;5.582;2024-03-23T02:00:11;10.20;99.90
71237;DHT22;58984;51.960;5.582;2024-03-23T02:02:42;10.20;99.90
71237;DHT22;58984;51.960;5.582;2024-03-23T02:05:08;10.20;99.90
71237;DHT22;58984;51.960;5.582;2024-03-23T02:07:34;10.20;99.90
71237;DHT22;58984;51.960;5.582;2024-03-23T02:10:00;10.20;99.90
71237;DHT22;58984;51.960;5.582;2024-03-23T02:12:26;10.20;99.90
71237;DHT22;58984;51.960;5.582;2024-03-23T02:14:52;10.20;99.90
71237;DHT22;58984;51.960;5.582;2024-03-23T02:17:17;10.20;99.90
71237;DHT22;58984;51.960;5.582;2024-03-23T02:19:43;10.20;99.90
71237;DHT22;58984;51.960;5.582;2024-03-23T02:22:09;10.20;99.90
71237;DHT22;58984;51.960;5.582;2024-03-23T02:24:37;10.20;99.90
71237;DHT22;58984;51.960;5.582;2024-03-23T02:27:03;10.20;99.90
71237;DHT22;58984;51.960;5.582;2024-03-23T02:29:29;10.10;99.90
71237;DHT22;58984;51.960;5.582;2024-03-23T02:31:54;10.20;99.90
71237;DHT22;58984;51.960;5.582;2024-03-23T02:34:20;10.10;99.90
71237;DHT22;58984;51.960;5.582;2024-03-23T02:36:46;10.10;99.90
71237;DHT22;58984;51.960;5.582;2024-03-23T02:39:11;10.20;99.90
71237;DHT22;58984;51.960;5.582;2024-03-23T02:41:37;10.10;99.90
71237;DHT22;58984;51.960;5.582;2024-03-23T02:44:02;10.10;99.90
71237;DHT22;58984;51.960;5.582;2024-03-23T02:46:28;10.10;99.90
71237;DHT22;58984;51.960;5.582;2024-03-23T02:48:54;10.10;99.90
71237;DHT22;58984;51.960;5.582;2024-03-23T02:51:19;10.10;99.90
71237;DHT22;58984;51.960;5.582;2024-03-23T02:53:45;10.10;99.90
71237;DHT22;58984;51.960;5.582;2024-03-23T02:56:10;10.10;99.90
71237;DHT22;58984;51.960;5.582;2024-03-23T02:58:41;10.10;99.90
71237;DHT22;58984;51.960;5.582;2024-03-23T03:01:07;10.00;99.90
71237;DHT22;58984;51.960;5.582;2024-03-23T03:03:32;10.10;99.90
71237;DHT22;58984;51.960;5.582;2024-03-23T03:05:58;10.00;99.90
71237;DHT22;58984;51.960;5.582;2024-03-23T03:08:24;10.00;99.90
71237;DHT22;58984;51.960;5.582;2024-03-23T03:10:49;10.00;99.90
71237;DHT22;58984;51.960;5.582;2024-03-23T03:13:15;10.00;99.90
71237;DHT22;58984;51.960;5.582;2024-03-23T03:15:43;10.00;99.90
71237;DHT22;58984;51.960;5.582;2024-03-23T03:18:08;9.90;99.90
71237;DHT22;58984;51.960;5.582;2024-03-23T03:20:40;9.90;99.90
71237;DHT22;58984;51.960;5.582;2024-03-23T03:23:06;9.90;99.90
71237;DHT22;58984;51.960;5.582;2024-03-23T03:25:32;9.90;99.90
71237;DHT22;58984;51.960;5.582;2024-03-23T03:27:58;9.90;99.90
71237;DHT22;58984;51.960;5.582;2024-03-23T03:30:24;9.90;99.90
71237;DHT22;58984;51.960;5.582;2024-03-23T03:32:54;9.90;99.90
71237;DHT22;58984;51.960;5.582;2024-03-23T03:35:20;9.90;99.90
71237;DHT22;58984;51.960;5.582;2024-03-23T03:37:46;9.80;99.90
71237;DHT22;58984;51.960;5.582;2024-03-23T03:40:12;9.80;99.90
71237;DHT22;58984;51.960;5.582;2024-03-23T03:42:38;9.80;99.90
71237;DHT22;58984;51.960;5.582;2024-03-23T03:45:04;9.80;99.90
71237;DHT22;58984;51.960;5.582;2024-03-23T03:47:30;9.80;99.90
71237;DHT22;58984;51.960;5.582;2024-03-23T03:49:56;9.80;99.90
71237;DHT22;58984;51.960;5.582;2024-03-23T03:52:22;9.80;99.90
71237;DHT22;58984;51.960;5.582;2024-03-23T03:54:47;9.70;99.90
71237;DHT22;58984;51.960;5.582;2024-03-23T03:57:16;9.70;99.90
71237;DHT22;58984;51.960;5.582;2024-03-23T03:59:41;9.70;99.90
71237;DHT22;58984;51.960;5.582;2024-03-23T04:02:07;9.70;99.90
71237;DHT22;58984;51.960;5.582;2024-03-23T04:04:33;9.70;99.90
71237;DHT22;58984;51.960;5.582;2024-03-23T04:07:02;9.70;99.90
71237;DHT22;58984;51.960;5.582;2024-03-23T04:09:28;9.60;99.90
71237;DHT22;58984;51.960;5.582;2024-03-23T04:11:54;9.60;99.90
71237;DHT22;58984;51.960;5.582;2024-03-23T04:14:19;9.60;99.90
71237;DHT22;58984;51.960;5.582;2024-03-23T04:16:45;9.60;99.90
71237;DHT22;58984;51.960;5.582;2024-03-23T04:19:10;9.60;99.90
71237;DHT22;58984;51.960;5.582;2024-03-23T04:21:37;9.60;99.90
71237;DHT22;58984;51.960;5.582;2024-03-23T04:24:03;9.50;99.90
71237;DHT22;58984;51.960;5.582;2024-03-23T04:26:29;9.50;99.90
71237;DHT22;58984;51.960;5.582;2024-03-23T04:28:55;9.50;99.90
71237;DHT22;58984;51.960;5.582;2024-03-23T04:31:20;9.50;99.90
71237;DHT22;58984;51.960;5.582;2024-03-23T04:33:47;9.50;99.90
71237;DHT22;58984;51.960;5.582;2024-03-23T04:36:13;9.40;99.90
71237;DHT22;58984;51.960;5.582;2024-03-23T04:38:38;9.40;99.90
71237;DHT22;58984;51.960;5.582;2024-03-23T04:41:04;9.40;99.90
71237;DHT22;58984;51.960;5.582;2024-03-23T04:43:30;9.40;99.90
71237;DHT22;58984;51.960;5.582;2024-03-23T04:45:55;9.40;99.90
71237;DHT22;58984;51.960;5.582;2024-03-23T04:48:22;9.30;99.90
71237;DHT22;58984;51.960;5.582;2024-03-23T04:50:49;9.30;99.90
71237;DHT22;58984;51.960;5.582;2024-03-23T04:53:15;9.30;99.90
71237;DHT22;58984;51.960;5.582;2024-03-23T04:55:44;9.30;99.90
71237;DHT22;58984;51.960;5.582;2024-03-23T04:58:09;9.30;99.90
71237;DHT22;58984;51.960;5.582;2024-03-23T05:00:35;9.20;99.90
71237;DHT22;58984;51.960;5.582;2024-03-23T05:03:01;9.20;99.90
71237;DHT22;58984;51.960;5.582;2024-03-23T05:05:26;9.20;99.90
71237;DHT22;58984;51.960;5.582;2024-03-23T05:07:52;9.20;99.90
71237;DHT22;58984;51.960;5.582;2024-03-23T05:10:17;9.20;99.90
71237;DHT22;58984;51.960;5.582;2024-03-23T05:12:43;9.20;99.90
71237;DHT22;58984;51.960;5.582;2024-03-23T05:15:11;9.10;99.90
71237;DHT22;58984;51.960;5.582;2024-03-23T05:17:37;9.10;99.90
71237;DHT22;58984;51.960;5.582;2024-03-23T05:20:04;9.10;99.90
71237;DHT22;58984;51.960;5.582;2024-03-23T05:22:29;9.10;99.90
71237;DHT22;58984;51.960;5.582;2024-03-23T05:24:56;9.10;99.90
71237;DHT22;58984;51.960;5.582;2024-03-23T05:27:22;9.10;99.90
71237;DHT22;58984;51.960;5.582;2024-03-23T05:29:47;9.10;99.90
71237;DHT22;58984;51.960;5.582;2024-03-23T05:32:13;9.00;99.90
71237;DHT22;58984;51.960;5.582;2024-03-23T05:34:38;9.00;99.90
71237;DHT22;58984;51.960;5.582;2024-03-23T05:37:04;9.00;99.90
71237;DHT22;58984;51.960;5.582;2024-03-23T05:39:30;9.00;99.90
71237;DHT22;58984;51.960;5.582;2024-03-23T05:41:55;9.00;99.90
71237;DHT22;58984;51.960;5.582;2024-03-23T05:44:21;9.00;99.90
71237;DHT22;58984;51.960;5.582;2024-03-23T05:46:47;9.00;99.90
71237;DHT22;58984;51.960;5.582;2024-03-23T05:49:15;9.00;99.90
71237;DHT22;58984;51.960;5.582;2024-03-23T05:51:41;8.90;99.90
71237;DHT22;58984;51.960;5.582;2024-03-23T05:54:06;8.90;99.90
71237;DHT22;58984;51.960;5.582;2024-03-23T05:56:32;9.00;99.90
71237;DHT22;58984;51.960;5.582;2024-03-23T05:58:57;8.90;99.90
71237;DHT22;58984;51.960;5.582;2024-03-23T06:01:23;8.90;99.90
71237;DHT22;58984;51.960;5.582;2024-03-23T06:03:49;8.90;99.90
71237;DHT22;58984;51.960;5.582;2024-03-23T06:06:14;8.90;99.90
71237;DHT22;58984;51.960;5.582;2024-03-23T06:08:40;8.90;99.90
71237;DHT22;58984;51.960;5.582;2024-03-23T06:11:06;8.90;99.90
71237;DHT22;58984;51.960;5.582;2024-03-23T06:13:32;8.90;99.90
71237;DHT22;58984;51.960;5.582;2024-03-23T06:15:59;8.90;99.90
71237;DHT22;58984;51.960;5.582;2024-03-23T06:18:25;8.90;99.90
71237;DHT22;58984;51.960;5.582;2024-03-23T06:20:51;8.90;99.90
71237;DHT22;58984;51.960;5.582;2024-03-23T06:23:17;8.90;99.90
71237;DHT22;58984;51.960;5.582;2024-03-23T06:25:45;8.90;99.90
71237;DHT22;58984;51.960;5.582;2024-03-23T06:28:10;8.90;99.90
71237;DHT22;58984;51.960;5.582;2024-03-23T06:30:36;8.90;99.90
71237;DHT22;58984;51.960;5.582;2024-03-23T06:33:02;8.90;99.90
71237;DHT22;58984;51.960;5.582;2024-03-23T06:35:28;8.90;99.90
71237;DHT22;58984;51.960;5.582;2024-03-23T06:37:53;8.90;99.90
71237;DHT22;58984;51.960;5.582;2024-03-23T06:40:19;8.90;99.90
71237;DHT22;58984;51.960;5.582;2024-03-23T06:42:44;8.90;99.90
71237;DHT22;58984;51.960;5.582;2024-03-23T06:45:10;8.90;99.90
71237;DHT22;58984;51.960;5.582;2024-03-23T06:47:36;8.90;99.90
71237;DHT22;58984;51.960;5.582;2024-03-23T06:50:03;8.90;99.90
71237;DHT22;58984;51.960;5.582;2024-03-23T06:52:29;8.90;99.90
71237;DHT22;58984;51.960;5.582;2024-03-23T06:54:55;8.90;99.90
71237;DHT22;58984;51.960;5.582;2024-03-23T06:57:21;8.90;99.90
71237;DHT22;58984;51.960;5.582;2024-03-23T06:59:47;8.90;99.90
71237;DHT22;58984;51.960;5.582;2024-03-23T07:02:12;8.90;99.90
71237;DHT22;58984;51.960;5.582;2024-03-23T07:04:38;8.90;99.90
71237;DHT22;58984;51.960;5.582;2024-03-23T07:07:05;8.90;99.90
71237;DHT22;58984;51.960;5.582;2024-03-23T07:09:30;8.90;99.90
71237;DHT22;58984;51.960;5.582;2024-03-23T07:11:57;8.90;99.90
71237;DHT22;58984;51.960;5.582;2024-03-23T07:14:23;8.90;99.90
71237;DHT22;58984;51.960;5.582;2024-03-23T07:16:50;8.90;99.90
71237;DHT22;58984;51.960;5.582;2024-03-23T07:19:16;8.90;99.90
71237;DHT22;58984;51.960;5.582;2024-03-23T07:21:45;8.90;99.90
71237;DHT22;58984;51.960;5.582;2024-03-23T07:24:11;8.90;99.90
71237;DHT22;58984;51.960;5.582;2024-03-23T07:26:37;8.90;99.90
71237;DHT22;58984;51.960;5.582;2024-03-23T07:29:06;8.90;99.90
71237;DHT22;58984;51.960;5.582;2024-03-23T07:31:31;8.90;99.90
71237;DHT22;58984;51.960;5.582;2024-03-23T07:33:57;9.00;99.90
71237;DHT22;58984;51.960;5.582;2024-03-23T07:36:23;8.90;99.90
71237;DHT22;58984;51.960;5.582;2024-03-23T07:38:49;8.90;99.90
71237;DHT22;58984;51.960;5.582;2024-03-23T07:41:19;9.00;99.90
71237;DHT22;58984;51.960;5.582;2024-03-23T07:43:46;9.00;99.90
71237;DHT22;58984;51.960;5.582;2024-03-23T07:46:12;9.00;99.90
71237;DHT22;58984;51.960;5.582;2024-03-23T07:48:38;9.00;99.90
71237;DHT22;58984;51.960;5.582;2024-03-23T07:51:10;8.90;99.90
71237;DHT22;58984;51.960;5.582;2024-03-23T07:53:36;9.00;99.90
71237;DHT22;58984;51.960;5.582;2024-03-23T07:56:06;9.00;99.90
71237;DHT22;58984;51.960;5.582;2024-03-23T07:58:32;9.00;99.90
71237;DHT22;58984;51.960;5.582;2024-03-23T08:01:16;9.00;99.90
71237;DHT22;58984;51.960;5.582;2024-03-23T08:03:43;9.00;99.90
71237;DHT22;58984;51.960;5.582;2024-03-23T08:06:17;9.00;99.90
71237;DHT22;58984;51.960;5.582;2024-03-23T08:08:44;9.10;99.90
71237;DHT22;58984;51.960;5.582;2024-03-23T08:11:10;9.10;99.90
71237;DHT22;58984;51.960;5.582;2024-03-23T08:13:38;9.10;99.90
71237;DHT22;58984;51.960;5.582;2024-03-23T08:16:04;9.10;99.90
71237;DHT22;58984;51.960;5.582;2024-03-23T08:18:30;9.10;99.90
71237;DHT22;58984;51.960;5.582;2024-03-23T08:23:23;9.20;99.90
71237;DHT22;58984;51.960;5.582;2024-03-23T08:25:49;9.20;99.90
71237;DHT22;58984;51.960;5.582;2024-03-23T08:28:14;9.30;99.90
71237;DHT22;58984;51.960;5.582;2024-03-23T08:30:40;9.30;99.90
71237;DHT22;58984;51.960;5.582;2024-03-23T08:33:06;9.40;99.90
71237;DHT22;58984;51.960;5.582;2024-03-23T08:35:31;9.40;99.90
71237;DHT22;58984;51.960;5.582;2024-03-23T08:37:57;9.50;99.90
71237;DHT22;58984;51.960;5.582;2024-03-23T08:40:22;9.50;99.90
71237;DHT22;58984;51.960;5.582;2024-03-23T08:42:48;9.60;99.90
71237;DHT22;58984;51.960;5.582;2024-03-23T08:45:14;9.60;99.90
71237;DHT22;58984;51.960;5.582;2024-03-23T08:47:39;9.60;99.90
71237;DHT22;58984;51.960;5.582;2024-03-23T08:50:05;9.70;99.90
71237;DHT22;58984;51.960;5.582;2024-03-23T08:52:31;9.70;99.90
71237;DHT22;58984;51.960;5.582;2024-03-23T08:54:57;9.80;99.90
71237;DHT22;58984;51.960;5.582;2024-03-23T08:57:23;9.80;99.90
71237;DHT22;58984;51.960;5.582;2024-03-23T08:59:49;9.90;99.90
71237;DHT22;58984;51.960;5.582;2024-03-23T09:02:15;9.90;99.90
71237;DHT22;58984;51.960;5.582;2024-03-23T09:04:41;10.00;99.90
71237;DHT22;58984;51.960;5.582;2024-03-23T09:07:06;10.00;99.90
71237;DHT22;58984;51.960;5.582;2024-03-23T09:09:32;10.10;99.90
71237;DHT22;58984;51.960;5.582;2024-03-23T09:11:58;10.10;99.90
71237;DHT22;58984;51.960;5.582;2024-03-23T09:14:23;10.10;99.90
71237;DHT22;58984;51.960;5.582;2024-03-23T09:16:52;10.10;99.90
71237;DHT22;58984;51.960;5.582;2024-03-23T09:19:18;10.20;99.90
71237;DHT22;58984;51.960;5.582;2024-03-23T09:21:43;10.20;99.90
71237;DHT22;58984;51.960;5.582;2024-03-23T09:24:09;10.20;99.90
71237;DHT22;58984;51.960;5.582;2024-03-23T09:26:35;10.20;99.90
71237;DHT22;58984;51.960;5.582;2024-03-23T09:29:00;10.30;99.90
71237;DHT22;58984;51.960;5.582;2024-03-23T09:31:26;10.30;99.90
71237;DHT22;58984;51.960;5.582;2024-03-23T09:33:52;10.40;99.90
71237;DHT22;58984;51.960;5.582;2024-03-23T09:36:17;10.50;99.90
71237;DHT22;58984;51.960;5.582;2024-03-23T09:38:43;10.50;99.90
71237;DHT22;58984;51.960;5.582;2024-03-23T09:41:09;10.60;99.90
71237;DHT22;58984;51.960;5.582;2024-03-23T09:43:35;10.70;99.90
71237;DHT22;58984;51.960;5.582;2024-03-23T09:46:02;10.70;99.90
71237;DHT22;58984;51.960;5.582;2024-03-23T09:48:28;10.80;99.90
71237;DHT22;58984;51.960;5.582;2024-03-23T09:50:54;10.90;99.90
71237;DHT22;58984;51.960;5.582;2024-03-23T09:53:19;11.00;99.90
71237;DHT22;58984;51.960;5.582;2024-03-23T09:55:45;11.10;99.90
71237;DHT22;58984;51.960;5.582;2024-03-23T09:58:16;11.20;99.90
71237;DHT22;58984;51.960;5.582;2024-03-23T10:00:43;11.30;99.90
71237;DHT22;58984;51.960;5.582;2024-03-23T10:03:08;11.40;99.90
71237;DHT22;58984;51.960;5.582;2024-03-23T10:05:37;11.40;99.90
71237;DHT22;58984;51.960;5.582;2024-03-23T10:08:18;11.60;99.90
71237;DHT22;58984;51.960;5.582;2024-03-23T10:10:47;11.60;99.90
71237;DHT22;58984;51.960;5.582;2024-03-23T10:13:24;11.70;99.90
71237;DHT22;58984;51.960;5.582;2024-03-23T10:15:58;11.70;99.90
71237;DHT22;58984;51.960;5.582;2024-03-23T10:18:24;11.80;99.90
71237;DHT22;58984;51.960;5.582;2024-03-23T10:21:06;11.90;99.90
71237;DHT22;58984;51.960;5.582;2024-03-23T10:23:36;11.90;99.90
71237;DHT22;58984;51.960;5.582;2024-03-23T10:26:23;12.00;99.90
71237;DHT22;58984;51.960;5.582;2024-03-23T10:31:20;12.10;99.90
71237;DHT22;58984;51.960;5.582;2024-03-23T10:33:47;12.20;99.90
71237;DHT22;58984;51.960;5.582;2024-03-23T10:36:13;12.40;99.90
71237;DHT22;58984;51.960;5.582;2024-03-23T10:38:41;12.40;99.90
71237;DHT22;58984;51.960;5.582;2024-03-23T10:41:08;12.50;99.90
71237;DHT22;58984;51.960;5.582;2024-03-23T10:43:36;12.60;99.90
71237;DHT22;58984;51.960;5.582;2024-03-23T10:46:02;12.70;99.90
71237;DHT22;58984;51.960;5.582;2024-03-23T10:48:28;12.80;99.90
71237;DHT22;58984;51.960;5.582;2024-03-23T10:50:54;12.80;99.90
71237;DHT22;58984;51.960;5.582;2024-03-23T10:53:22;12.90;99.90
71237;DHT22;58984;51.960;5.582;2024-03-23T10:55:51;12.90;99.90
71237;DHT22;58984;51.960;5.582;2024-03-23T10:58:29;12.90;99.90
71237;DHT22;58984;51.960;5.582;2024-03-23T11:00:55;13.00;99.90
71237;DHT22;58984;51.960;5.582;2024-03-23T11:03:35;13.00;99.90
71237;DHT22;58984;51.960;5.582;2024-03-23T11:06:07;13.10;99.90
71237;DHT22;58984;51.960;5.582;2024-03-23T11:08:40;13.10;99.90
71237;DHT22;58984;51.960;5.582;2024-03-23T11:11:17;13.20;99.90
71237;DHT22;58984;51.960;5.582;2024-03-23T11:13:43;13.20;99.90
71237;DHT22;58984;51.960;5.582;2024-03-23T11:16:26;13.30;99.90
71237;DHT22;58984;51.960;5.582;2024-03-23T11:19:38;13.40;99.90
71237;DHT22;58984;51.960;5.582;2024-03-23T11:22:04;13.40;99.90
71237;DHT22;58984;51.960;5.582;2024-03-23T11:24:31;13.50;99.90
71237;DHT22;58984;51.960;5.582;2024-03-23T11:26:56;13.50;99.90
71237;DHT22;58984;51.960;5.582;2024-03-23T11:29:26;13.50;99.90
71237;DHT22;58984;51.960;5.582;2024-03-23T11:31:53;13.50;99.90
71237;DHT22;58984;51.960;5.582;2024-03-23T11:34:22;13.50;99.90
71237;DHT22;58984;51.960;5.582;2024-03-23T11:36:48;13.60;99.90
71237;DHT22;58984;51.960;5.582;2024-03-23T11:39:17;13.60;99.90
71237;DHT22;58984;51.960;5.582;2024-03-23T11:41:49;13.60;99.90
71237;DHT22;58984;51.960;5.582;2024-03-23T11:44:19;13.60;99.90
71237;DHT22;58984;51.960;5.582;2024-03-23T11:46:46;13.60;99.90
71237;DHT22;58984;51.960;5.582;2024-03-23T11:49:21;13.50;99.90
71237;DHT22;58984;51.960;5.582;2024-03-23T11:51:48;13.50;99.90
71237;DHT22;58984;51.960;5.582;2024-03-23T11:54:13;13.50;99.90
71237;DHT22;58984;51.960;5.582;2024-03-23T11:56:39;13.50;99.90
71237;DHT22;58984;51.960;5.582;2024-03-23T11:59:06;13.50;99.90
71237;DHT22;58984;51.960;5.582;2024-03-23T12:01:32;13.50;99.90
71237;DHT22;58984;51.960;5.582;2024-03-23T12:03:57;13.40;99.90
71237;DHT22;58984;51.960;5.582;2024-03-23T12:06:23;13.40;99.90
71237;DHT22;58984;51.960;5.582;2024-03-23T12:08:49;13.40;99.90
71237;DHT22;58984;51.960;5.582;2024-03-23T12:11:18;13.30;99.90
71237;DHT22;58984;51.960;5.582;2024-03-23T12:13:45;13.30;99.90
71237;DHT22;58984;51.960;5.582;2024-03-23T12:16:20;13.30;99.90
71237;DHT22;58984;51.960;5.582;2024-03-23T12:18:47;13.20;99.90
71237;DHT22;58984;51.960;5.582;2024-03-23T12:21:13;13.20;99.90
71237;DHT22;58984;51.960;5.582;2024-03-23T12:23:39;13.20;99.90
71237;DHT22;58984;51.960;5.582;2024-03-23T12:26:05;13.20;99.90
71237;DHT22;58984;51.960;5.582;2024-03-23T12:28:32;13.20;99.90
71237;DHT22;58984;51.960;5.582;2024-03-23T12:30:58;13.20;99.90
71237;DHT22;58984;51.960;5.582;2024-03-23T12:33:24;13.20;99.90
71237;DHT22;58984;51.960;5.582;2024-03-23T12:35:50;13.40;99.90
71237;DHT22;58984;51.960;5.582;2024-03-23T12:38:16;13.40;99.90
71237;DHT22;58984;51.960;5.582;2024-03-23T12:40:51;13.40;99.90
71237;DHT22;58984;51.960;5.582;2024-03-23T12:43:17;13.40;99.90
71237;DHT22;58984;51.960;5.582;2024-03-23T12:45:47;13.50;99.90
71237;DHT22;58984;51.960;5.582;2024-03-23T12:48:13;13.50;99.90
71237;DHT22;58984;51.960;5.582;2024-03-23T12:50:38;13.50;99.90
71237;DHT22;58984;51.960;5.582;2024-03-23T12:53:04;13.50;99.90
71237;DHT22;58984;51.960;5.582;2024-03-23T12:55:30;13.50;99.90
71237;DHT22;58984;51.960;5.582;2024-03-23T12:57:55;13.50;99.90
71237;DHT22;58984;51.960;5.582;2024-03-23T13:00:22;13.50;99.90
71237;DHT22;58984;51.960;5.582;2024-03-23T13:02:47;13.50;99.90
71237;DHT22;58984;51.960;5.582;2024-03-23T13:05:13;13.50;99.90
71237;DHT22;58984;51.960;5.582;2024-03-23T13:07:39;13.50;99.90
71237;DHT22;58984;51.960;5.582;2024-03-23T13:10:06;13.40;99.90
71237;DHT22;58984;51.960;5.582;2024-03-23T13:12:32;13.40;99.90
71237;DHT22;58984;51.960;5.582;2024-03-23T13:14:59;13.40;99.90
71237;DHT22;58984;51.960;5.582;2024-03-23T13:17:25;13.40;99.90
71237;DHT22;58984;51.960;5.582;2024-03-23T13:19:52;13.50;99.90
71237;DHT22;58984;51.960;5.582;2024-03-23T13:22:18;13.50;99.90
71237;DHT22;58984;51.960;5.582;2024-03-23T13:24:44;13.50;99.90
71237;DHT22;58984;51.960;5.582;2024-03-23T13:27:10;13.50;99.90
71237;DHT22;58984;51.960;5.582;2024-03-23T13:29:36;13.50;99.90
71237;DHT22;58984;51.960;5.582;2024-03-23T13:32:03;13.50;99.90
71237;DHT22;58984;51.960;5.582;2024-03-23T13:34:29;13.50;99.90
71237;DHT22;58984;51.960;5.582;2024-03-23T13:36:55;13.50;99.90
71237;DHT22;58984;51.960;5.582;2024-03-23T13:39:23;13.50;99.90
71237;DHT22;58984;51.960;5.582;2024-03-23T13:41:49;13.50;99.90
71237;DHT22;58984;51.960;5.582;2024-03-23T13:44:15;13.50;99.90
71237;DHT22;58984;51.960;5.582;2024-03-23T13:46:42;13.50;99.90
71237;DHT22;58984;51.960;5.582;2024-03-23T13:49:33;13.50;99.90
71237;DHT22;58984;51.960;5.582;2024-03-23T13:51:59;13.50;99.90
71237;DHT22;58984;51.960;5.582;2024-03-23T13:54:25;13.50;99.90
71237;DHT22;58984;51.960;5.582;2024-03-23T13:56:51;13.50;99.90
71237;DHT22;58984;51.960;5.582;2024-03-23T13:59:17;13.50;99.90
71237;DHT22;58984;51.960;5.582;2024-03-23T14:01:46;13.50;99.90
71237;DHT22;58984;51.960;5.582;2024-03-23T14:04:13;13.40;99.90
71237;DHT22;58984;51.960;5.582;2024-03-23T14:06:39;13.50;99.90
71237;DHT22;58984;51.960;5.582;2024-03-23T14:09:08;13.40;99.90
71237;DHT22;58984;51.960;5.582;2024-03-23T14:11:37;13.40;99.90
71237;DHT22;58984;51.960;5.582;2024-03-23T14:14:03;13.40;99.90
71237;DHT22;58984;51.960;5.582;2024-03-23T14:16:32;13.30;99.90
71237;DHT22;58984;51.960;5.582;2024-03-23T14:18:59;13.30;99.90
71237;DHT22;58984;51.960;5.582;2024-03-23T14:21:24;13.20;99.90
71237;DHT22;58984;51.960;5.582;2024-03-23T14:23:50;13.20;99.90
71237;DHT22;58984;51.960;5.582;2024-03-23T14:26:16;13.20;99.90
71237;DHT22;58984;51.960;5.582;2024-03-23T14:28:42;13.10;99.90
71237;DHT22;58984;51.960;5.582;2024-03-23T14:31:08;13.10;99.90
71237;DHT22;58984;51.960;5.582;2024-03-23T14:33:39;13.00;99.90
71237;DHT22;58984;51.960;5.582;2024-03-23T14:36:12;13.00;99.90
71237;DHT22;58984;51.960;5.582;2024-03-23T14:38:38;12.90;99.90
71237;DHT22;58984;51.960;5.582;2024-03-23T14:41:05;12.90;99.90
71237;DHT22;58984;51.960;5.582;2024-03-23T14:43:31;12.90;99.90
71237;DHT22;58984;51.960;5.582;2024-03-23T14:46:13;12.80;99.90
71237;DHT22;58984;51.960;5.582;2024-03-23T14:48:40;12.80;99.90
71237;DHT22;58984;51.960;5.582;2024-03-23T14:51:06;12.80;99.90
71237;DHT22;58984;51.960;5.582;2024-03-23T14:53:34;12.70;99.90
71237;DHT22;58984;51.960;5.582;2024-03-23T14:56:01;12.70;99.90
71237;DHT22;58984;51.960;5.582;2024-03-23T14:58:28;12.60;99.90
71237;DHT22;58984;51.960;5.582;2024-03-23T15:01:02;12.60;99.90
71237;DHT22;58984;51.960;5.582;2024-03-23T15:03:28;12.60;99.90
71237;DHT22;58984;51.960;5.582;2024-03-23T15:05:58;12.60;99.90
71237;DHT22;58984;51.960;5.582;2024-03-23T15:08:25;12.50;99.90
71237;DHT22;58984;51.960;5.582;2024-03-23T15:10:51;12.50;99.90
71237;DHT22;58984;51.960;5.582;2024-03-23T15:13:17;12.50;99.90
71237;DHT22;58984;51.960;5.582;2024-03-23T15:15:44;12.50;99.90
71237;DHT22;58984;51.960;5.582;2024-03-23T15:18:14;12.50;99.90
71237;DHT22;58984;51.960;5.582;2024-03-23T15:20:58;12.40;99.90
71237;DHT22;58984;51.960;5.582;2024-03-23T15:23:28;12.40;99.90
71237;DHT22;58984;51.960;5.582;2024-03-23T15:26:02;12.40;99.90
71237;DHT22;58984;51.960;5.582;2024-03-23T15:28:28;12.30;99.90
71237;DHT22;58984;51.960;5.582;2024-03-23T15:31:10;12.30;99.90
71237;DHT22;58984;51.960;5.582;2024-03-23T15:33:36;12.30;99.90
71237;DHT22;58984;51.960;5.582;2024-03-23T15:36:05;12.30;99.90
71237;DHT22;58984;51.960;5.582;2024-03-23T15:38:34;12.30;99.90
71237;DHT22;58984;51.960;5.582;2024-03-23T15:40:59;12.20;99.90
71237;DHT22;58984;51.960;5.582;2024-03-23T15:43:25;12.20;99.60
71237;DHT22;58984;51.960;5.582;2024-03-23T15:45:59;12.20;99.90
71237;DHT22;58984;51.960;5.582;2024-03-23T15:48:26;12.10;99.90
71237;DHT22;58984;51.960;5.582;2024-03-23T15:50:57;12.10;99.90
71237;DHT22;58984;51.960;5.582;2024-03-23T15:53:24;12.10;99.50
71237;DHT22;58984;51.960;5.582;2024-03-23T15:58:22;12.00;98.70
71237;DHT22;58984;51.960;5.582;2024-03-23T16:00:58;12.00;99.60
71237;DHT22;58984;51.960;5.582;2024-03-23T16:03:25;11.90;98.70
71237;DHT22;58984;51.960;5.582;2024-03-23T16:06:07;11.90;98.20
71237;DHT22;58984;51.960;5.582;2024-03-23T16:08:33;11.90;98.00
71237;DHT22;58984;51.960;5.582;2024-03-23T16:11:04;11.80;98.40
71237;DHT22;58984;51.960;5.582;2024-03-23T16:13:31;11.80;98.30
71237;DHT22;58984;51.960;5.582;2024-03-23T16:16:02;11.80;97.90
71237;DHT22;58984;51.960;5.582;2024-03-23T16:18:33;11.70;98.10
71237;DHT22;58984;51.960;5.582;2024-03-23T16:21:04;11.70;97.90
71237;DHT22;58984;51.960;5.582;2024-03-23T16:23:35;11.70;97.90
71237;DHT22;58984;51.960;5.582;2024-03-23T16:26:05;11.60;98.20
71237;DHT22;58984;51.960;5.582;2024-03-23T16:28:35;11.60;98.60
71237;DHT22;58984;51.960;5.582;2024-03-23T16:31:03;11.60;98.20
71237;DHT22;58984;51.960;5.582;2024-03-23T16:33:30;11.50;98.40
71237;DHT22;58984;51.960;5.582;2024-03-23T16:36:06;11.50;98.30
71237;DHT22;58984;51.960;5.582;2024-03-23T16:38:36;11.50;98.30